Time;durP1;ratioP1;P1;durP2;ratioP2;P2;SDS_P1;SDS_P2;PMS_P1;PMS_P2;Temp;Humidity;BMP_temperature;BMP_pressure;BME280_temperature;BME280_humidity;BME280_pressure;Samples;Min_cycle;Max_cycle;Signal;HPM_P1;HPM_P2
2020/12/09 00:01:58;;;;;;;22.33;13.00;;;6.00;99.90;;;;;;5052602;28;20219;-74
2020/12/09 00:04:24;;;;;;;20.57;12.83;;;6.00;99.90;;;;;;5087745;28;20226;-75
2020/12/09 00:06:51;;;;;;;15.87;11.40;;;6.10;99.90;;;;;;5041215;28;20210;-74
2020/12/09 00:09:19;;;;;;;21.20;12.57;;;6.10;99.90;;;;;;5048813;28;20225;-74
2020/12/09 00:11:46;;;;;;;20.17;13.47;;;6.00;99.90;;;;;;5072547;28;20203;-74
2020/12/09 00:14:14;;;;;;;18.07;11.63;;;5.90;99.90;;;;;;5062398;28;20271;-74
2020/12/09 00:16:40;;;;;;;19.67;13.57;;;5.90;99.90;;;;;;5053164;28;20630;-75
2020/12/09 00:19:07;;;;;;;19.37;12.23;;;6.00;99.90;;;;;;5064903;28;20199;-75
2020/12/09 00:21:34;;;;;;;19.63;12.97;;;5.90;99.90;;;;;;5076181;28;20355;-74
2020/12/09 00:24:01;;;;;;;18.47;12.23;;;6.00;99.90;;;;;;5069550;28;20199;-74
2020/12/09 00:26:28;;;;;;;22.77;12.97;;;6.00;99.90;;;;;;5071293;28;20280;-75
2020/12/09 00:28:57;;;;;;;22.33;14.10;;;6.00;99.90;;;;;;5070363;28;20564;-74
2020/12/09 00:31:29;;;;;;;21.63;13.63;;;6.00;99.90;;;;;;5072057;28;20230;-74
2020/12/09 00:33:55;;;;;;;21.10;12.83;;;5.90;99.90;;;;;;5082779;28;20559;-74
2020/12/09 00:36:23;;;;;;;17.60;12.60;;;5.70;99.90;;;;;;5069009;28;20269;-74
2020/12/09 00:38:52;;;;;;;20.50;12.80;;;5.80;99.90;;;;;;5072435;28;20214;-75
2020/12/09 00:41:22;;;;;;;20.80;12.80;;;5.80;99.90;;;;;;5089304;28;20685;-74
2020/12/09 00:43:49;;;;;;;19.87;13.23;;;5.80;99.90;;;;;;5071649;28;20295;-74
2020/12/09 00:46:25;;;;;;;21.73;13.03;;;5.90;99.90;;;;;;5065330;28;20234;-75
2020/12/09 00:48:52;;;;;;;18.37;13.60;;;5.60;99.90;;;;;;5073657;28;20294;-74
2020/12/09 00:51:20;;;;;;;20.50;13.37;;;5.40;99.90;;;;;;5071689;28;20203;-75
2020/12/09 00:53:48;;;;;;;19.43;13.70;;;5.30;99.90;;;;;;5089577;28;20555;-74
2020/12/09 00:56:15;;;;;;;21.17;13.37;;;5.30;99.90;;;;;;5068684;28;20210;-74
2020/12/09 00:58:41;;;;;;;22.43;13.50;;;5.20;99.90;;;;;;5072679;28;20289;-74
2020/12/09 01:01:10;;;;;;;22.00;14.50;;;5.20;99.90;;;;;;5052441;28;20210;-75
2020/12/09 01:03:36;;;;;;;25.03;14.37;;;5.20;99.90;;;;;;5092898;28;20655;-75
2020/12/09 01:06:07;;;;;;;21.73;13.60;;;5.20;99.90;;;;;;5070558;28;20262;-74
2020/12/09 01:08:34;;;;;;;18.83;12.53;;;5.20;99.90;;;;;;5068211;28;20576;-74
2020/12/09 01:11:01;;;;;;;21.37;13.70;;;5.20;99.90;;;;;;5066273;28;20290;-75
2020/12/09 01:13:27;;;;;;;21.30;12.70;;;5.10;99.90;;;;;;5071140;28;20202;-74
2020/12/09 01:15:53;;;;;;;19.93;13.07;;;5.10;99.90;;;;;;5068807;28;20353;-75
2020/12/09 01:18:20;;;;;;;23.30;13.70;;;5.20;99.90;;;;;;5040101;28;20634;-74
2020/12/09 01:20:46;;;;;;;21.00;13.27;;;5.30;99.90;;;;;;5082075;28;20234;-75
2020/12/09 01:23:14;;;;;;;22.30;13.07;;;5.20;99.90;;;;;;5035927;28;20198;-75
2020/12/09 01:25:40;;;;;;;19.47;12.90;;;5.00;99.90;;;;;;5056730;28;21083;-75
2020/12/09 01:28:06;;;;;;;19.43;13.33;;;4.80;99.90;;;;;;5055910;28;20191;-75
2020/12/09 01:30:33;;;;;;;23.23;14.23;;;4.60;99.90;;;;;;5063734;28;20318;-74
2020/12/09 01:32:59;;;;;;;26.40;14.00;;;4.50;99.90;;;;;;5086851;28;20552;-75
2020/12/09 01:35:26;;;;;;;21.87;12.93;;;4.40;99.90;;;;;;5068480;28;20235;-75
2020/12/09 01:37:53;;;;;;;19.90;12.07;;;4.40;99.90;;;;;;5077300;28;20213;-75
2020/12/09 01:40:20;;;;;;;18.33;12.37;;;4.20;99.90;;;;;;5088552;28;20254;-74
2020/12/09 01:42:49;;;;;;;19.87;13.23;;;4.20;99.90;;;;;;5091272;28;20248;-74
2020/12/09 01:45:16;;;;;;;21.40;12.97;;;4.20;99.90;;;;;;5072224;28;20292;-75
2020/12/09 01:47:44;;;;;;;23.83;13.87;;;4.40;99.90;;;;;;5045136;28;20254;-74
2020/12/09 01:50:13;;;;;;;18.53;12.30;;;4.50;99.90;;;;;;5070246;28;20221;-74
2020/12/09 01:52:39;;;;;;;21.77;13.90;;;4.70;99.90;;;;;;5056774;28;20198;-75
2020/12/09 01:55:06;;;;;;;22.67;14.13;;;4.60;99.90;;;;;;5068650;28;20250;-75
2020/12/09 01:57:33;;;;;;;27.00;14.07;;;4.50;99.90;;;;;;5055279;28;20210;-74
2020/12/09 01:59:59;;;;;;;22.50;13.57;;;4.10;99.90;;;;;;5070290;28;21122;-74
2020/12/09 02:02:26;;;;;;;20.00;12.43;;;4.00;99.90;;;;;;5068442;28;20286;-75
2020/12/09 02:04:53;;;;;;;22.57;13.40;;;3.70;99.90;;;;;;5090433;28;20654;-74
2020/12/09 02:07:22;;;;;;;20.67;13.50;;;3.60;99.90;;;;;;5071884;28;20207;-75
2020/12/09 02:10:04;;;;;;;20.40;12.97;;;3.50;99.90;;;;;;5070058;28;20211;-74
2020/12/09 02:12:32;;;;;;;19.67;12.93;;;3.60;99.90;;;;;;5084802;28;20244;-74
2020/12/09 02:14:59;;;;;;;24.57;14.17;;;3.80;99.90;;;;;;5075683;28;20671;-74
2020/12/09 02:17:26;;;;;;;23.60;14.17;;;3.90;99.90;;;;;;5067641;28;20644;-74
2020/12/09 02:19:52;;;;;;;26.17;13.43;;;4.10;99.90;;;;;;5056267;28;20222;-75
2020/12/09 02:22:19;;;;;;;23.43;12.63;;;4.10;99.90;;;;;;5063472;28;20205;-75
2020/12/09 02:24:45;;;;;;;20.57;12.67;;;4.10;99.90;;;;;;5074200;28;20812;-75
2020/12/09 02:27:13;;;;;;;26.70;14.37;;;3.90;99.90;;;;;;5066053;28;20278;-75
2020/12/09 02:29:40;;;;;;;24.77;13.23;;;3.70;99.90;;;;;;5064735;28;20314;-74
2020/12/09 02:32:06;;;;;;;21.23;11.67;;;3.50;99.90;;;;;;5064885;28;20232;-74
2020/12/09 02:34:33;;;;;;;23.47;13.80;;;3.40;99.90;;;;;;5062603;28;20207;-74
2020/12/09 02:36:59;;;;;;;24.57;13.10;;;3.40;99.90;;;;;;5063360;28;20204;-75
2020/12/09 02:39:35;;;;;;;22.47;13.27;;;3.40;99.90;;;;;;5055354;28;20286;-74
2020/12/09 02:42:02;;;;;;;23.27;13.03;;;3.20;99.90;;;;;;5060332;28;20288;-74
2020/12/09 02:44:28;;;;;;;21.17;13.73;;;3.20;99.90;;;;;;5068227;28;20696;-74
2020/12/09 02:46:54;;;;;;;24.47;13.80;;;2.90;99.90;;;;;;5087639;28;20658;-74
2020/12/09 02:49:22;;;;;;;23.20;13.70;;;2.80;99.90;;;;;;5057730;28;20263;-74
2020/12/09 02:51:50;;;;;;;22.10;13.50;;;2.70;99.90;;;;;;5074664;28;20190;-74
2020/12/09 02:54:18;;;;;;;19.17;10.90;;;2.80;99.90;;;;;;5051717;28;20262;-74
2020/12/09 02:56:44;;;;;;;19.03;11.17;;;2.80;99.90;;;;;;5069972;28;21344;-74
2020/12/09 02:59:10;;;;;;;19.10;10.67;;;2.60;99.90;;;;;;5053640;28;20195;-74
2020/12/09 03:01:37;;;;;;;20.70;12.97;;;2.50;99.90;;;;;;5085457;28;20279;-74
2020/12/09 03:04:03;;;;;;;20.07;11.93;;;2.30;99.90;;;;;;5051641;28;20200;-73
2020/12/09 03:06:29;;;;;;;21.00;12.67;;;2.20;99.90;;;;;;5076422;28;20292;-74
2020/12/09 03:08:56;;;;;;;26.23;13.30;;;2.10;99.90;;;;;;5088616;28;20234;-74
2020/12/09 03:11:23;;;;;;;24.23;13.23;;;2.00;99.90;;;;;;5056887;28;21157;-74
2020/12/09 03:13:49;;;;;;;24.87;12.73;;;1.70;99.90;;;;;;5077886;28;20187;-74
2020/12/09 03:16:16;;;;;;;26.60;12.53;;;1.60;99.90;;;;;;5059552;28;20233;-74
2020/12/09 03:18:42;;;;;;;24.53;12.90;;;1.50;99.90;;;;;;5066985;28;20284;-74
2020/12/09 03:21:08;;;;;;;28.83;12.63;;;1.50;99.90;;;;;;5088094;28;20254;-75
2020/12/09 03:23:36;;;;;;;24.20;12.87;;;1.50;99.90;;;;;;5039246;28;20203;-74
2020/12/09 03:26:04;;;;;;;22.03;12.83;;;1.40;99.90;;;;;;5083087;28;20268;-74
2020/12/09 03:28:32;;;;;;;23.80;12.83;;;1.40;99.90;;;;;;5068775;28;20265;-75
2020/12/09 03:30:58;;;;;;;28.97;12.67;;;1.30;99.90;;;;;;5071359;28;20304;-74
2020/12/09 03:33:24;;;;;;;29.53;12.67;;;1.20;99.90;;;;;;5055390;28;20196;-74
2020/12/09 03:35:51;;;;;;;27.07;11.63;;;1.10;99.90;;;;;;5041048;28;20546;-74
2020/12/09 03:38:17;;;;;;;26.13;12.17;;;1.20;99.90;;;;;;5059646;28;20198;-74
2020/12/09 03:40:44;;;;;;;27.47;11.80;;;1.30;99.90;;;;;;5073725;28;20571;-74
2020/12/09 03:43:10;;;;;;;26.80;11.07;;;1.20;99.90;;;;;;5037477;28;20206;-74
2020/12/09 03:45:36;;;;;;;29.17;12.07;;;1.10;99.90;;;;;;5029716;28;20658;-75
2020/12/09 03:48:03;;;;;;;23.03;12.17;;;1.00;99.90;;;;;;5057461;28;20274;-74
2020/12/09 03:50:30;;;;;;;27.63;13.20;;;1.00;99.90;;;;;;5074917;28;20214;-74
2020/12/09 03:52:56;;;;;;;28.67;12.63;;;1.00;99.90;;;;;;5072096;28;20254;-75
2020/12/09 03:55:23;;;;;;;22.67;12.43;;;0.90;99.90;;;;;;5068990;28;20191;-75
2020/12/09 03:57:50;;;;;;;21.10;12.37;;;0.80;99.90;;;;;;5055697;28;20194;-75
2020/12/09 04:00:17;;;;;;;25.33;11.03;;;0.80;99.90;;;;;;5076233;28;20267;-76
2020/12/09 04:02:44;;;;;;;28.27;13.30;;;0.80;99.90;;;;;;5072382;28;20216;-75
2020/12/09 04:05:11;;;;;;;30.63;11.90;;;0.70;99.90;;;;;;5071165;28;20213;-74
2020/12/09 04:07:37;;;;;;;33.43;12.90;;;0.60;99.90;;;;;;5057026;28;20656;-74
2020/12/09 04:10:05;;;;;;;36.83;11.67;;;0.50;99.90;;;;;;5075200;28;20625;-74
2020/12/09 04:12:31;;;;;;;32.13;12.10;;;0.50;99.90;;;;;;5053192;28;20535;-74
2020/12/09 04:14:58;;;;;;;24.90;12.73;;;0.50;99.90;;;;;;5057352;28;20683;-75
2020/12/09 04:17:25;;;;;;;34.53;13.73;;;0.70;99.90;;;;;;5059811;28;20270;-75
2020/12/09 04:19:51;;;;;;;23.40;12.97;;;0.70;99.90;;;;;;5055495;28;20229;-74
2020/12/09 04:22:17;;;;;;;45.07;14.40;;;0.60;99.90;;;;;;5078303;28;20209;-75
2020/12/09 04:24:44;;;;;;;34.70;12.77;;;0.50;99.90;;;;;;5064887;28;20791;-74
2020/12/09 04:27:11;;;;;;;40.83;14.30;;;0.50;99.90;;;;;;5057088;28;20676;-73
2020/12/09 04:29:37;;;;;;;35.23;13.63;;;0.60;99.90;;;;;;5075266;28;20297;-74
2020/12/09 04:32:04;;;;;;;35.33;14.73;;;0.80;99.90;;;;;;5073442;28;20293;-74
2020/12/09 04:34:33;;;;;;;31.57;15.37;;;0.80;99.90;;;;;;5047943;28;21962;-75
2020/12/09 04:37:00;;;;;;;28.27;14.10;;;0.70;99.90;;;;;;5069918;28;20202;-74
2020/12/09 04:39:27;;;;;;;31.23;14.43;;;0.70;99.90;;;;;;5079442;28;20270;-74
2020/12/09 04:41:53;;;;;;;27.20;13.90;;;0.60;99.90;;;;;;5051630;28;20290;-74
2020/12/09 04:44:20;;;;;;;29.17;13.77;;;0.70;99.90;;;;;;5046464;28;20280;-74
2020/12/09 04:46:49;;;;;;;24.53;12.47;;;0.60;99.90;;;;;;5042365;28;21175;-74
2020/12/09 04:49:23;;;;;;;27.87;13.63;;;0.40;99.90;;;;;;5075865;28;20281;-74
2020/12/09 04:52:25;;;;;;;42.97;13.10;;;0.50;99.90;;;;;;5072587;28;20350;-74
2020/12/09 04:55:01;;;;;;;31.27;12.60;;;0.20;99.90;;;;;;5033487;28;20332;-74
2020/12/09 04:58:14;;;;;;;24.97;15.00;;;0.30;99.90;;;;;;5082656;28;20283;-73
2020/12/09 05:00:45;;;;;;;29.27;13.70;;;0.70;99.90;;;;;;5018005;28;20232;-74
2020/12/09 05:03:19;;;;;;;30.03;13.23;;;0.50;99.90;;;;;;5075112;28;20198;-74
2020/12/09 05:05:47;;;;;;;52.20;14.07;;;0.50;99.90;;;;;;5062548;28;20264;-74
2020/12/09 05:08:22;;;;;;;35.43;12.57;;;0.40;99.90;;;;;;5052673;28;20206;-74
2020/12/09 05:10:51;;;;;;;26.30;12.60;;;0.00;99.90;;;;;;5084965;28;20278;-74
2020/12/09 05:13:23;;;;;;;25.07;13.30;;;-0.30;99.90;;;;;;5070378;28;20233;-74
2020/12/09 05:15:58;;;;;;;38.30;12.37;;;-0.20;99.90;;;;;;5072382;28;20194;-75
2020/12/09 05:18:38;;;;;;;27.73;11.40;;;-0.50;99.90;;;;;;5071121;28;20197;-74
2020/12/09 05:21:09;;;;;;;18.20;11.57;;;-0.50;99.90;;;;;;5088279;28;20289;-74
2020/12/09 05:23:44;;;;;;;52.03;13.30;;;-0.60;99.90;;;;;;5064225;28;20650;-75
2020/12/09 05:26:31;;;;;;;31.03;11.83;;;-0.40;99.90;;;;;;5068725;28;20199;-73
2020/12/09 05:29:11;;;;;;;19.87;11.07;;;-0.70;99.90;;;;;;5069614;28;20208;-73
2020/12/09 05:31:39;;;;;;;22.87;12.00;;;-0.70;99.90;;;;;;5088946;28;20209;-75
2020/12/09 05:34:32;;;;;;;30.60;12.57;;;-0.50;99.90;;;;;;5070774;28;20227;-73
2020/12/09 05:37:01;;;;;;;36.40;13.40;;;-0.60;99.90;;;;;;5064016;28;20194;-74
2020/12/09 05:39:28;;;;;;;22.30;11.83;;;-0.60;99.90;;;;;;5086727;28;20205;-74
2020/12/09 05:41:55;;;;;;;26.03;13.73;;;-0.50;99.90;;;;;;5069136;28;20272;-74
2020/12/09 05:44:24;;;;;;;38.27;14.77;;;-0.30;99.90;;;;;;5069042;28;20646;-74
2020/12/09 05:47:02;;;;;;;28.70;13.67;;;-0.10;99.90;;;;;;5078948;28;20283;-75
2020/12/09 05:49:32;;;;;;;52.47;14.80;;;0.10;99.90;;;;;;5064783;28;20232;-74
2020/12/09 05:52:04;;;;;;;30.87;15.20;;;-0.10;99.90;;;;;;5063883;28;20623;-74
2020/12/09 05:54:31;;;;;;;30.50;15.00;;;-0.30;99.90;;;;;;5081009;28;20197;-74
2020/12/09 05:56:57;;;;;;;34.50;13.60;;;-0.50;99.90;;;;;;5067976;28;20206;-73
2020/12/09 05:59:38;;;;;;;45.77;15.20;;;-0.70;99.90;;;;;;5071376;28;20199;-73
2020/12/09 06:02:10;;;;;;;41.80;17.50;;;-0.70;99.90;;;;;;5088356;28;20201;-75
2020/12/09 06:04:44;;;;;;;29.73;15.60;;;-0.80;99.90;;;;;;5077206;28;20205;-74
2020/12/09 06:07:11;;;;;;;40.60;15.53;;;-0.30;99.90;;;;;;5056209;28;20283;-74
2020/12/09 06:09:38;;;;;;;25.60;13.90;;;-0.70;99.90;;;;;;5065571;28;20277;-74
2020/12/09 06:12:05;;;;;;;33.03;14.63;;;-0.70;99.90;;;;;;5067369;28;20206;-74
2020/12/09 06:14:32;;;;;;;30.83;14.20;;;-0.50;99.90;;;;;;5100619;28;20205;-73
2020/12/09 06:17:00;;;;;;;31.90;15.10;;;-0.60;99.90;;;;;;5088302;28;20587;-74
2020/12/09 06:19:26;;;;;;;34.37;16.30;;;-0.70;99.90;;;;;;5056321;28;20209;-74
2020/12/09 06:21:57;;;;;;;35.40;14.10;;;-0.70;99.90;;;;;;5071543;28;20234;-74
2020/12/09 06:24:24;;;;;;;28.03;15.37;;;-0.60;99.90;;;;;;5092421;28;20208;-73
2020/12/09 06:26:50;;;;;;;29.50;14.13;;;-0.60;99.90;;;;;;5070442;28;20303;-73
2020/12/09 06:29:23;;;;;;;28.17;12.43;;;-0.50;99.90;;;;;;5069306;28;20230;-73
2020/12/09 06:32:16;;;;;;;34.23;13.57;;;-0.70;99.90;;;;;;5063838;28;20231;-73
2020/12/09 06:35:03;;;;;;;39.67;11.80;;;-0.80;99.90;;;;;;5048357;28;20205;-74
2020/12/09 06:37:30;;;;;;;21.03;10.77;;;-0.80;99.90;;;;;;5057565;28;20562;-74
2020/12/09 06:40:11;;;;;;;30.33;12.30;;;-0.70;99.90;;;;;;5052867;28;20284;-74
2020/12/09 06:42:38;;;;;;;24.40;12.57;;;-0.60;99.90;;;;;;5085414;28;20206;-74
2020/12/09 06:45:05;;;;;;;25.70;12.57;;;-0.50;99.90;;;;;;5046166;28;20267;-74
2020/12/09 06:47:32;;;;;;;19.50;12.17;;;-0.40;99.90;;;;;;5039811;28;20627;-74
2020/12/09 06:50:00;;;;;;;22.17;11.17;;;-0.50;99.90;;;;;;5068402;28;20557;-74
2020/12/09 06:52:29;;;;;;;22.37;12.90;;;-0.30;99.90;;;;;;5070827;28;20502;-74
2020/12/09 06:54:57;;;;;;;22.17;11.73;;;-0.30;99.90;;;;;;5056373;28;20210;-74
2020/12/09 06:57:25;;;;;;;29.97;11.87;;;-0.20;99.90;;;;;;5066263;28;20532;-73
2020/12/09 07:00:15;;;;;;;21.77;12.33;;;-0.20;99.90;;;;;;5069884;28;20222;-74
2020/12/09 07:02:43;;;;;;;26.50;12.33;;;-0.10;99.90;;;;;;5092718;28;20203;-74
2020/12/09 07:05:27;;;;;;;30.53;11.83;;;-0.10;99.90;;;;;;5077918;28;20275;-74
2020/12/09 07:08:03;;;;;;;28.53;11.70;;;0.00;99.90;;;;;;5079872;28;20823;-74
2020/12/09 07:10:32;;;;;;;19.17;10.87;;;0.00;99.90;;;;;;5089086;28;20665;-74
2020/12/09 07:13:10;;;;;;;31.93;12.33;;;0.00;99.90;;;;;;5077317;28;20201;-75
2020/12/09 07:15:43;;;;;;;29.07;12.87;;;0.10;99.90;;;;;;5069852;28;20218;-75
2020/12/09 07:18:09;;;;;;;26.57;13.70;;;0.20;99.90;;;;;;5067982;28;20209;-74
2020/12/09 07:20:36;;;;;;;31.67;12.70;;;0.00;99.90;;;;;;5050927;28;20604;-75
2020/12/09 07:23:04;;;;;;;28.50;13.97;;;0.20;99.90;;;;;;5051987;28;20204;-74
2020/12/09 07:25:32;;;;;;;26.40;14.47;;;0.20;99.90;;;;;;5065148;28;20210;-75
2020/12/09 07:27:58;;;;;;;23.67;12.00;;;0.20;99.90;;;;;;5078447;28;20620;-76
2020/12/09 07:30:25;;;;;;;29.57;13.37;;;0.10;99.90;;;;;;5057049;28;20251;-74
2020/12/09 07:32:52;;;;;;;29.63;12.30;;;0.20;99.90;;;;;;5054282;28;20205;-75
2020/12/09 07:35:19;;;;;;;32.33;13.47;;;0.30;99.90;;;;;;5069300;28;20222;-74
2020/12/09 07:37:53;;;;;;;34.63;13.40;;;0.10;99.90;;;;;;5068379;28;20229;-73
2020/12/09 07:40:29;;;;;;;26.80;13.33;;;0.40;99.90;;;;;;5063126;28;20263;-71
2020/12/09 07:43:03;;;;;;;33.57;12.83;;;0.50;99.90;;;;;;5088018;28;20222;-74
2020/12/09 07:45:30;;;;;;;29.03;12.60;;;0.60;99.90;;;;;;5067408;28;20202;-74
2020/12/09 07:48:01;;;;;;;26.00;13.57;;;0.40;99.90;;;;;;5061089;28;20217;-73
2020/12/09 07:50:28;;;;;;;27.43;13.17;;;0.50;99.90;;;;;;5071225;28;20268;-76
2020/12/09 07:52:54;;;;;;;31.00;12.87;;;0.60;99.90;;;;;;5037734;28;20198;-74
2020/12/09 07:55:21;;;;;;;27.80;13.67;;;0.70;99.90;;;;;;5051168;28;20237;-75
2020/12/09 07:57:48;;;;;;;24.67;12.17;;;0.80;99.90;;;;;;5068905;28;20338;-74
2020/12/09 08:00:16;;;;;;;30.43;12.13;;;0.50;99.90;;;;;;5052453;28;20217;-75
2020/12/09 08:02:45;;;;;;;28.00;12.93;;;0.50;99.90;;;;;;5059450;28;20272;-77
2020/12/09 08:05:20;;;;;;;34.53;14.20;;;0.50;99.90;;;;;;5073179;28;20587;-76
2020/12/09 08:07:59;;;;;;;35.70;13.17;;;0.60;99.90;;;;;;5072508;28;20225;-76
2020/12/09 08:10:28;;;;;;;23.57;12.90;;;0.50;99.90;;;;;;5056677;28;20251;-78
2020/12/09 08:13:07;;;;;;;33.23;14.57;;;0.50;99.90;;;;;;5067009;28;20194;-78
2020/12/09 08:15:35;;;;;;;32.87;14.23;;;0.40;99.90;;;;;;5070498;28;20240;-79
2020/12/09 08:18:02;;;;;;;37.77;15.60;;;0.50;99.90;;;;;;5079374;28;20202;-76
2020/12/09 08:20:29;;;;;;;41.03;16.37;;;0.50;99.90;;;;;;5051636;28;20238;-75
2020/12/09 08:22:58;;;;;;;36.57;15.07;;;0.40;99.90;;;;;;5064092;28;20258;-75
2020/12/09 08:25:32;;;;;;;42.03;16.10;;;0.50;99.90;;;;;;5089456;28;20214;-73
2020/12/09 08:28:06;;;;;;;48.73;15.43;;;0.70;99.90;;;;;;5069526;28;21155;-73
2020/12/09 08:30:34;;;;;;;40.90;16.17;;;0.70;99.90;;;;;;5087806;28;20246;-71
2020/12/09 08:33:16;;;;;;;37.57;14.33;;;0.60;99.90;;;;;;5069421;28;20645;-72
2020/12/09 08:35:42;;;;;;;42.70;16.10;;;0.50;99.90;;;;;;5084752;28;20254;-76
2020/12/09 08:38:12;;;;;;;37.43;16.37;;;0.50;99.90;;;;;;5087260;28;20209;-73
2020/12/09 08:40:38;;;;;;;47.27;14.43;;;0.70;99.90;;;;;;5069863;28;20613;-71
2020/12/09 08:43:05;;;;;;;56.17;16.90;;;0.60;99.90;;;;;;5054002;28;20208;-72
2020/12/09 08:45:32;;;;;;;40.53;16.03;;;0.40;99.90;;;;;;5054871;28;20289;-72
2020/12/09 08:47:58;;;;;;;38.27;15.03;;;0.50;99.90;;;;;;5055400;28;20225;-72
2020/12/09 08:50:24;;;;;;;52.13;18.90;;;0.50;99.90;;;;;;5074565;28;20221;-71
2020/12/09 08:52:51;;;;;;;45.27;17.90;;;0.60;99.90;;;;;;5056311;28;20197;-72
2020/12/09 08:55:17;;;;;;;46.83;17.87;;;0.50;99.90;;;;;;5067616;28;20203;-72
2020/12/09 08:57:43;;;;;;;45.53;16.80;;;0.70;99.90;;;;;;5066998;28;20665;-71
2020/12/09 09:00:10;;;;;;;45.50;18.37;;;0.70;99.90;;;;;;5043958;28;20203;-73
2020/12/09 09:02:38;;;;;;;41.07;18.03;;;0.70;99.90;;;;;;5061394;28;20254;-73
2020/12/09 09:05:06;;;;;;;44.67;17.63;;;0.80;99.90;;;;;;5073187;28;20654;-71
2020/12/09 09:07:32;;;;;;;57.23;18.97;;;1.00;99.90;;;;;;5059612;28;20214;-73
2020/12/09 09:09:59;;;;;;;45.43;17.07;;;0.90;99.90;;;;;;5062469;28;20320;-72
2020/12/09 09:12:26;;;;;;;45.37;18.73;;;0.90;99.90;;;;;;5070385;28;20243;-73
2020/12/09 09:14:52;;;;;;;53.57;16.87;;;0.80;99.90;;;;;;5071093;28;20202;-72
2020/12/09 09:17:19;;;;;;;44.97;17.13;;;0.80;99.90;;;;;;5047387;28;20221;-74
2020/12/09 09:20:00;;;;;;;39.03;17.17;;;0.80;99.90;;;;;;5071628;28;20349;-72
2020/12/09 09:22:26;;;;;;;51.60;17.33;;;0.80;99.90;;;;;;5063427;28;20233;-72
2020/12/09 09:24:52;;;;;;;42.63;18.07;;;0.80;99.90;;;;;;5043258;28;20222;-73
2020/12/09 09:27:18;;;;;;;40.57;17.83;;;0.90;99.90;;;;;;5055068;28;20926;-72
2020/12/09 09:29:45;;;;;;;39.13;16.63;;;0.70;99.90;;;;;;5084910;28;20260;-72
2020/12/09 09:32:13;;;;;;;39.30;19.50;;;0.60;99.90;;;;;;5085906;28;20556;-73
2020/12/09 09:34:40;;;;;;;39.67;16.63;;;0.50;99.90;;;;;;5063835;28;20284;-75
2020/12/09 09:37:08;;;;;;;37.47;16.00;;;0.70;99.90;;;;;;5080424;28;20194;-74
2020/12/09 09:39:36;;;;;;;41.43;17.07;;;0.90;99.90;;;;;;5084963;28;20624;-73
2020/12/09 09:42:05;;;;;;;45.77;17.83;;;1.00;99.90;;;;;;5061859;28;20650;-73
2020/12/09 09:44:32;;;;;;;39.37;17.27;;;1.00;99.90;;;;;;5084154;28;20228;-73
2020/12/09 09:46:59;;;;;;;48.17;19.00;;;1.00;99.90;;;;;;5087902;28;20235;-72
2020/12/09 09:49:26;;;;;;;45.13;18.50;;;1.10;99.90;;;;;;5080375;28;20233;-75
2020/12/09 09:51:53;;;;;;;46.53;18.70;;;1.20;99.90;;;;;;5086079;28;20270;-75
2020/12/09 09:54:20;;;;;;;46.43;18.63;;;1.30;99.90;;;;;;5079736;28;20201;-75
2020/12/09 09:56:46;;;;;;;44.60;18.60;;;1.30;99.90;;;;;;5088166;28;20281;-75
2020/12/09 09:59:13;;;;;;;38.57;16.87;;;1.10;99.90;;;;;;5087775;28;20632;-74
2020/12/09 10:01:39;;;;;;;44.63;18.23;;;1.20;99.90;;;;;;5080394;28;20377;-76
2020/12/09 10:04:08;;;;;;;39.93;17.80;;;1.20;99.90;;;;;;5080675;28;20205;-74
2020/12/09 10:06:35;;;;;;;40.17;15.50;;;1.30;99.90;;;;;;5077929;28;20210;-74
2020/12/09 10:09:04;;;;;;;40.10;17.37;;;0.90;99.90;;;;;;5084522;28;20202;-75
2020/12/09 10:11:30;;;;;;;38.20;16.93;;;1.00;99.90;;;;;;5076991;28;20219;-76
2020/12/09 10:13:58;;;;;;;27.97;14.40;;;1.20;99.90;;;;;;5078589;28;20268;-75
2020/12/09 10:16:28;;;;;;;44.90;17.33;;;1.00;99.90;;;;;;5081587;28;20268;-74
2020/12/09 10:18:55;;;;;;;39.23;18.03;;;1.10;99.90;;;;;;5079542;28;20865;-74
2020/12/09 10:21:27;;;;;;;42.60;19.00;;;1.30;99.90;;;;;;5081092;28;20303;-75
2020/12/09 10:23:54;;;;;;;35.27;17.40;;;1.50;99.90;;;;;;5067942;28;20205;-73
2020/12/09 10:26:30;;;;;;;37.23;17.33;;;1.60;99.90;;;;;;5080264;28;20268;-72
2020/12/09 10:29:01;;;;;;;47.77;18.10;;;1.60;99.90;;;;;;5081097;28;20213;-73
2020/12/09 10:31:42;;;;;;;48.67;16.43;;;1.50;99.90;;;;;;5085228;28;20270;-73
2020/12/09 10:34:10;;;;;;;41.70;18.10;;;1.40;99.90;;;;;;5079374;28;20206;-73
2020/12/09 10:36:38;;;;;;;41.00;16.50;;;1.60;99.90;;;;;;5089869;28;20251;-74
2020/12/09 10:39:06;;;;;;;36.90;14.97;;;1.50;99.90;;;;;;5083530;28;20556;-75
2020/12/09 10:41:40;;;;;;;45.53;16.63;;;1.20;99.90;;;;;;5088792;28;20260;-75
2020/12/09 10:44:08;;;;;;;38.67;15.93;;;1.20;99.90;;;;;;5085884;28;20525;-75
2020/12/09 10:46:36;;;;;;;47.30;18.13;;;1.40;99.90;;;;;;5082905;28;20249;-76
2020/12/09 10:49:05;;;;;;;33.97;16.17;;;1.40;99.90;;;;;;5081375;28;20286;-75
2020/12/09 10:51:33;;;;;;;48.93;18.83;;;1.40;99.90;;;;;;5077711;28;20708;-73
2020/12/09 10:54:01;;;;;;;43.43;16.73;;;1.60;99.90;;;;;;5085890;28;20260;-73
2020/12/09 10:56:30;;;;;;;36.07;15.93;;;1.70;99.90;;;;;;5068819;28;20207;-74
2020/12/09 10:58:58;;;;;;;36.70;16.23;;;1.50;99.90;;;;;;5088580;28;20215;-75
2020/12/09 11:01:25;;;;;;;43.60;16.60;;;1.50;99.90;;;;;;5062433;28;20305;-74
2020/12/09 11:03:55;;;;;;;34.27;15.07;;;1.70;99.90;;;;;;5084963;28;20218;-75
2020/12/09 11:06:32;;;;;;;38.67;17.07;;;1.60;99.90;;;;;;5071320;28;20590;-75
2020/12/09 11:09:02;;;;;;;46.20;16.90;;;1.80;99.90;;;;;;5072705;28;20218;-74
2020/12/09 11:11:28;;;;;;;37.40;15.57;;;1.80;99.90;;;;;;5084193;28;20242;-75
2020/12/09 11:13:55;;;;;;;34.40;16.47;;;1.70;99.90;;;;;;5087355;28;20234;-75
2020/12/09 11:16:22;;;;;;;38.77;15.60;;;1.70;99.90;;;;;;5085691;28;20631;-74
2020/12/09 11:18:52;;;;;;;37.93;16.87;;;1.50;99.90;;;;;;5087286;28;20369;-75
2020/12/09 11:21:24;;;;;;;40.50;16.67;;;1.60;99.90;;;;;;5078231;28;20238;-74
2020/12/09 11:23:51;;;;;;;32.27;15.93;;;1.60;99.90;;;;;;5082737;28;20222;-75
2020/12/09 11:26:19;;;;;;;39.47;17.00;;;1.60;99.90;;;;;;5072047;28;20868;-74
2020/12/09 11:28:47;;;;;;;32.73;15.37;;;1.50;99.90;;;;;;5090522;28;20610;-73
2020/12/09 11:31:14;;;;;;;34.07;14.30;;;1.60;99.90;;;;;;5087000;28;20284;-75
2020/12/09 11:33:40;;;;;;;32.63;14.53;;;1.60;99.90;;;;;;5081853;28;20226;-75
2020/12/09 11:36:07;;;;;;;35.27;14.60;;;1.50;99.90;;;;;;5066178;28;20199;-75
2020/12/09 11:38:33;;;;;;;37.67;16.77;;;1.70;99.90;;;;;;5064830;28;20252;-75
2020/12/09 11:40:59;;;;;;;34.90;16.07;;;1.90;99.90;;;;;;5067376;28;20818;-75
2020/12/09 11:43:27;;;;;;;34.60;15.63;;;1.90;99.90;;;;;;5064767;28;20325;-75
2020/12/09 11:45:57;;;;;;;29.80;13.60;;;1.90;99.90;;;;;;5088615;28;20594;-75
2020/12/09 11:48:26;;;;;;;31.63;13.17;;;1.80;99.90;;;;;;5071185;28;20298;-75
2020/12/09 11:50:52;;;;;;;31.00;14.50;;;1.70;99.90;;;;;;5068845;28;20621;-75
2020/12/09 11:53:19;;;;;;;30.23;14.87;;;1.80;99.90;;;;;;5088063;28;20221;-75
2020/12/09 11:55:46;;;;;;;31.47;13.43;;;1.80;99.90;;;;;;5063094;28;20207;-75
2020/12/09 11:58:13;;;;;;;32.57;13.53;;;1.90;99.90;;;;;;5086975;28;20257;-75
2020/12/09 12:00:39;;;;;;;33.97;15.70;;;2.00;99.90;;;;;;5086234;28;20243;-75
2020/12/09 12:03:09;;;;;;;32.17;13.37;;;1.80;99.90;;;;;;5067773;28;20300;-76
2020/12/09 12:05:37;;;;;;;30.23;13.90;;;1.70;99.90;;;;;;5072564;28;20672;-74
2020/12/09 12:08:05;;;;;;;29.33;14.00;;;1.80;99.90;;;;;;5086727;28;20213;-74
2020/12/09 12:10:32;;;;;;;30.67;14.27;;;1.90;99.90;;;;;;5076934;28;20684;-74
2020/12/09 12:13:00;;;;;;;35.93;14.20;;;1.80;99.90;;;;;;5085843;28;20560;-74
2020/12/09 12:15:26;;;;;;;32.77;14.70;;;1.80;99.90;;;;;;5062965;28;20284;-75
2020/12/09 12:17:52;;;;;;;35.97;15.83;;;1.80;99.90;;;;;;5080236;28;20213;-75
2020/12/09 12:20:19;;;;;;;29.33;14.03;;;1.80;99.90;;;;;;5075624;28;20297;-74
2020/12/09 12:22:46;;;;;;;28.50;13.13;;;2.00;99.90;;;;;;5076478;28;20237;-75
2020/12/09 12:25:12;;;;;;;28.33;14.30;;;1.80;99.90;;;;;;5066224;28;20663;-74
2020/12/09 12:27:38;;;;;;;27.27;13.07;;;1.90;99.90;;;;;;5073932;28;20370;-75
2020/12/09 12:30:05;;;;;;;30.10;13.83;;;1.90;99.90;;;;;;5066316;28;20227;-74
2020/12/09 12:32:32;;;;;;;31.30;12.43;;;2.00;99.90;;;;;;5070630;28;20220;-73
2020/12/09 12:34:58;;;;;;;28.77;12.27;;;1.90;99.90;;;;;;5086844;28;20218;-73
2020/12/09 12:37:24;;;;;;;25.53;12.63;;;1.70;99.90;;;;;;5087197;28;20194;-74
2020/12/09 12:39:51;;;;;;;27.10;13.67;;;1.60;99.90;;;;;;5064122;28;20198;-74
2020/12/09 12:42:19;;;;;;;34.57;14.53;;;1.70;99.90;;;;;;5091421;28;20261;-74
2020/12/09 12:44:45;;;;;;;26.50;14.07;;;1.80;99.90;;;;;;5070775;28;20199;-75